sensor_id;sensor_type;location;lat;lon;timestamp;P1;durP1;ratioP1;P2;durP2;ratioP2
23588;SDS011;11972;48.078;11.876;2022-12-07T00:03:45;9.13;;;8.23;;
23588;SDS011;11972;48.078;11.876;2022-12-07T00:07:46;11.15;;;8.48;;
23588;SDS011;11972;48.078;11.876;2022-12-07T00:11:50;8.75;;;7.85;;
23588;SDS011;11972;48.078;11.876;2022-12-07T00:15:51;10.43;;;8.02;;
23588;SDS011;11972;48.078;11.876;2022-12-07T00:19:51;9.30;;;8.40;;
23588;SDS011;11972;48.078;11.876;2022-12-07T00:23:52;8.93;;;8.07;;
23588;SDS011;11972;48.078;11.876;2022-12-07T00:27:54;9.50;;;8.18;;
23588;SDS011;11972;48.078;11.876;2022-12-07T00:31:56;9.48;;;8.48;;
23588;SDS011;11972;48.078;11.876;2022-12-07T00:35:57;10.88;;;9.07;;
23588;SDS011;11972;48.078;11.876;2022-12-07T00:39:58;9.63;;;8.35;;
23588;SDS011;11972;48.078;11.876;2022-12-07T00:43:58;10.20;;;8.55;;
23588;SDS011;11972;48.078;11.876;2022-12-07T00:47:59;10.70;;;9.02;;
23588;SDS011;11972;48.078;11.876;2022-12-07T00:51:59;9.63;;;8.73;;
23588;SDS011;11972;48.078;11.876;2022-12-07T00:56:04;10.07;;;9.02;;
23588;SDS011;11972;48.078;11.876;2022-12-07T01:00:06;10.77;;;9.48;;
23588;SDS011;11972;48.078;11.876;2022-12-07T01:04:06;9.35;;;8.45;;
23588;SDS011;11972;48.078;11.876;2022-12-07T01:08:08;9.93;;;9.02;;
23588;SDS011;11972;48.078;11.876;2022-12-07T01:12:08;9.75;;;8.60;;
23588;SDS011;11972;48.078;11.876;2022-12-07T01:16:09;10.43;;;9.10;;
23588;SDS011;11972;48.078;11.876;2022-12-07T01:20:12;9.55;;;8.60;;
23588;SDS011;11972;48.078;11.876;2022-12-07T01:24:13;9.15;;;8.25;;
23588;SDS011;11972;48.078;11.876;2022-12-07T01:28:13;9.68;;;7.95;;
23588;SDS011;11972;48.078;11.876;2022-12-07T01:32:13;10.07;;;8.90;;
23588;SDS011;11972;48.078;11.876;2022-12-07T01:36:21;8.82;;;7.97;;
23588;SDS011;11972;48.078;11.876;2022-12-07T01:40:24;9.13;;;8.20;;
23588;SDS011;11972;48.078;11.876;2022-12-07T01:44:27;9.77;;;8.77;;
23588;SDS011;11972;48.078;11.876;2022-12-07T01:52:36;10.35;;;8.23;;
23588;SDS011;11972;48.078;11.876;2022-12-07T01:56:39;11.98;;;8.85;;
23588;SDS011;11972;48.078;11.876;2022-12-07T02:00:44;12.80;;;9.25;;
23588;SDS011;11972;48.078;11.876;2022-12-07T02:04:44;10.27;;;9.27;;
23588;SDS011;11972;48.078;11.876;2022-12-07T02:08:45;9.07;;;8.18;;
23588;SDS011;11972;48.078;11.876;2022-12-07T02:12:48;9.25;;;8.25;;
23588;SDS011;11972;48.078;11.876;2022-12-07T02:25:45;9.32;;;8.30;;
23588;SDS011;11972;48.078;11.876;2022-12-07T02:30:02;8.75;;;7.85;;
23588;SDS011;11972;48.078;11.876;2022-12-07T02:34:09;9.10;;;7.72;;
23588;SDS011;11972;48.078;11.876;2022-12-07T02:42:45;10.05;;;8.18;;
23588;SDS011;11972;48.078;11.876;2022-12-07T02:46:54;8.57;;;7.68;;
23588;SDS011;11972;48.078;11.876;2022-12-07T02:50:58;8.38;;;7.05;;
23588;SDS011;11972;48.078;11.876;2022-12-07T02:54:58;8.20;;;7.25;;
23588;SDS011;11972;48.078;11.876;2022-12-07T03:03:08;8.82;;;7.63;;
23588;SDS011;11972;48.078;11.876;2022-12-07T03:07:18;8.27;;;7.47;;
23588;SDS011;11972;48.078;11.876;2022-12-07T03:11:27;8.77;;;7.72;;
23588;SDS011;11972;48.078;11.876;2022-12-07T03:15:38;9.48;;;7.65;;
23588;SDS011;11972;48.078;11.876;2022-12-07T03:19:44;8.38;;;7.47;;
23588;SDS011;11972;48.078;11.876;2022-12-07T03:23:50;9.52;;;7.47;;
23588;SDS011;11972;48.078;11.876;2022-12-07T03:32:03;7.88;;;7.07;;
23588;SDS011;11972;48.078;11.876;2022-12-07T03:36:11;8.88;;;7.80;;
23588;SDS011;11972;48.078;11.876;2022-12-07T03:40:33;8.40;;;7.40;;
23588;SDS011;11972;48.078;11.876;2022-12-07T03:45:02;10.13;;;8.35;;
23588;SDS011;11972;48.078;11.876;2022-12-07T03:53:29;8.48;;;7.63;;
23588;SDS011;11972;48.078;11.876;2022-12-07T03:58:00;8.55;;;7.60;;
23588;SDS011;11972;48.078;11.876;2022-12-07T04:02:05;8.93;;;7.90;;
23588;SDS011;11972;48.078;11.876;2022-12-07T04:06:06;9.63;;;8.50;;
23588;SDS011;11972;48.078;11.876;2022-12-07T04:10:07;8.27;;;7.47;;
23588;SDS011;11972;48.078;11.876;2022-12-07T04:14:08;8.50;;;7.70;;
23588;SDS011;11972;48.078;11.876;2022-12-07T04:18:20;9.88;;;8.30;;
23588;SDS011;11972;48.078;11.876;2022-12-07T04:22:20;10.15;;;8.32;;
23588;SDS011;11972;48.078;11.876;2022-12-07T04:26:21;9.18;;;8.20;;
23588;SDS011;11972;48.078;11.876;2022-12-07T04:30:21;8.77;;;7.88;;
23588;SDS011;11972;48.078;11.876;2022-12-07T04:34:22;9.10;;;8.20;;
23588;SDS011;11972;48.078;11.876;2022-12-07T04:38:22;10.38;;;8.68;;
23588;SDS011;11972;48.078;11.876;2022-12-07T04:42:22;8.52;;;7.63;;
23588;SDS011;11972;48.078;11.876;2022-12-07T04:46:23;8.60;;;7.70;;
23588;SDS011;11972;48.078;11.876;2022-12-07T04:50:24;9.57;;;8.15;;
23588;SDS011;11972;48.078;11.876;2022-12-07T04:54:24;9.48;;;8.48;;
23588;SDS011;11972;48.078;11.876;2022-12-07T04:58:25;9.20;;;8.20;;
23588;SDS011;11972;48.078;11.876;2022-12-07T05:02:25;9.63;;;8.13;;
23588;SDS011;11972;48.078;11.876;2022-12-07T05:06:25;8.43;;;7.60;;
23588;SDS011;11972;48.078;11.876;2022-12-07T05:10:26;9.40;;;8.40;;
23588;SDS011;11972;48.078;11.876;2022-12-07T05:14:26;8.82;;;7.93;;
23588;SDS011;11972;48.078;11.876;2022-12-07T05:18:26;9.38;;;8.38;;
23588;SDS011;11972;48.078;11.876;2022-12-07T05:22:27;8.80;;;7.95;;
23588;SDS011;11972;48.078;11.876;2022-12-07T05:26:28;8.50;;;7.60;;
23588;SDS011;11972;48.078;11.876;2022-12-07T05:30:28;8.85;;;7.90;;
23588;SDS011;11972;48.078;11.876;2022-12-07T05:34:29;9.23;;;8.02;;
23588;SDS011;11972;48.078;11.876;2022-12-07T05:38:29;11.27;;;9.57;;
23588;SDS011;11972;48.078;11.876;2022-12-07T05:42:30;12.73;;;9.77;;
23588;SDS011;11972;48.078;11.876;2022-12-07T05:46:30;13.32;;;11.18;;
23588;SDS011;11972;48.078;11.876;2022-12-07T05:50:31;14.27;;;11.13;;
23588;SDS011;11972;48.078;11.876;2022-12-07T05:54:31;13.80;;;11.80;;
23588;SDS011;11972;48.078;11.876;2022-12-07T05:58:32;13.70;;;11.30;;
23588;SDS011;11972;48.078;11.876;2022-12-07T06:02:50;15.30;;;11.45;;
23588;SDS011;11972;48.078;11.876;2022-12-07T06:06:51;14.73;;;11.73;;
23588;SDS011;11972;48.078;11.876;2022-12-07T06:10:52;15.18;;;12.20;;
23588;SDS011;11972;48.078;11.876;2022-12-07T06:15:12;14.45;;;11.48;;
23588;SDS011;11972;48.078;11.876;2022-12-07T06:19:13;15.38;;;11.75;;
23588;SDS011;11972;48.078;11.876;2022-12-07T06:23:13;14.80;;;11.80;;
23588;SDS011;11972;48.078;11.876;2022-12-07T06:27:14;14.65;;;11.45;;
23588;SDS011;11972;48.078;11.876;2022-12-07T06:31:14;14.95;;;11.10;;
23588;SDS011;11972;48.078;11.876;2022-12-07T06:35:15;13.57;;;10.98;;
23588;SDS011;11972;48.078;11.876;2022-12-07T06:39:15;14.00;;;11.00;;
23588;SDS011;11972;48.078;11.876;2022-12-07T06:43:16;13.13;;;11.15;;
23588;SDS011;11972;48.078;11.876;2022-12-07T06:47:16;15.40;;;11.57;;
23588;SDS011;11972;48.078;11.876;2022-12-07T06:51:16;15.10;;;11.35;;
23588;SDS011;11972;48.078;11.876;2022-12-07T06:55:17;14.68;;;11.20;;
23588;SDS011;11972;48.078;11.876;2022-12-07T06:59:18;13.93;;;11.77;;
23588;SDS011;11972;48.078;11.876;2022-12-07T07:03:18;14.02;;;10.48;;
23588;SDS011;11972;48.078;11.876;2022-12-07T07:07:18;12.88;;;10.13;;
23588;SDS011;11972;48.078;11.876;2022-12-07T07:11:19;13.15;;;10.18;;
23588;SDS011;11972;48.078;11.876;2022-12-07T07:15:19;12.32;;;10.23;;
23588;SDS011;11972;48.078;11.876;2022-12-07T07:19:19;12.38;;;10.45;;
23588;SDS011;11972;48.078;11.876;2022-12-07T07:23:20;13.60;;;10.68;;
23588;SDS011;11972;48.078;11.876;2022-12-07T07:27:21;13.00;;;10.77;;
23588;SDS011;11972;48.078;11.876;2022-12-07T07:31:21;12.63;;;10.30;;
23588;SDS011;11972;48.078;11.876;2022-12-07T07:35:22;13.13;;;10.00;;
23588;SDS011;11972;48.078;11.876;2022-12-07T07:39:22;14.07;;;10.07;;
23588;SDS011;11972;48.078;11.876;2022-12-07T07:43:23;14.15;;;11.02;;
23588;SDS011;11972;48.078;11.876;2022-12-07T07:47:23;13.68;;;10.48;;
23588;SDS011;11972;48.078;11.876;2022-12-07T07:51:23;12.07;;;10.80;;
23588;SDS011;11972;48.078;11.876;2022-12-07T07:55:24;13.20;;;10.57;;
23588;SDS011;11972;48.078;11.876;2022-12-07T07:59:24;12.15;;;9.98;;
23588;SDS011;11972;48.078;11.876;2022-12-07T08:03:25;13.55;;;10.73;;
23588;SDS011;11972;48.078;11.876;2022-12-07T08:07:26;18.08;;;13.95;;
23588;SDS011;11972;48.078;11.876;2022-12-07T08:11:27;11.77;;;10.38;;
23588;SDS011;11972;48.078;11.876;2022-12-07T08:15:29;11.05;;;9.65;;
23588;SDS011;11972;48.078;11.876;2022-12-07T08:19:30;12.93;;;10.75;;
23588;SDS011;11972;48.078;11.876;2022-12-07T08:23:31;11.27;;;9.85;;
23588;SDS011;11972;48.078;11.876;2022-12-07T08:27:32;11.50;;;9.75;;
23588;SDS011;11972;48.078;11.876;2022-12-07T08:31:32;11.75;;;9.82;;
23588;SDS011;11972;48.078;11.876;2022-12-07T08:35:33;10.43;;;9.30;;
23588;SDS011;11972;48.078;11.876;2022-12-07T08:39:34;10.35;;;9.35;;
23588;SDS011;11972;48.078;11.876;2022-12-07T08:43:34;10.27;;;9.07;;
23588;SDS011;11972;48.078;11.876;2022-12-07T08:47:36;10.63;;;9.57;;
23588;SDS011;11972;48.078;11.876;2022-12-07T08:51:39;12.75;;;9.05;;
23588;SDS011;11972;48.078;11.876;2022-12-07T08:55:40;11.10;;;9.63;;
23588;SDS011;11972;48.078;11.876;2022-12-07T08:59:40;10.60;;;9.10;;
23588;SDS011;11972;48.078;11.876;2022-12-07T09:03:41;8.77;;;7.97;;
23588;SDS011;11972;48.078;11.876;2022-12-07T09:07:42;9.02;;;8.13;;
23588;SDS011;11972;48.078;11.876;2022-12-07T09:11:45;10.38;;;8.32;;
23588;SDS011;11972;48.078;11.876;2022-12-07T09:15:45;7.82;;;7.13;;
23588;SDS011;11972;48.078;11.876;2022-12-07T09:19:46;6.60;;;6.00;;
23588;SDS011;11972;48.078;11.876;2022-12-07T09:23:46;7.25;;;6.65;;
23588;SDS011;11972;48.078;11.876;2022-12-07T09:27:46;7.15;;;6.55;;
23588;SDS011;11972;48.078;11.876;2022-12-07T09:31:47;6.78;;;6.18;;
23588;SDS011;11972;48.078;11.876;2022-12-07T09:35:48;7.30;;;6.60;;
23588;SDS011;11972;48.078;11.876;2022-12-07T09:39:49;6.82;;;6.22;;
23588;SDS011;11972;48.078;11.876;2022-12-07T09:43:50;7.55;;;6.85;;
23588;SDS011;11972;48.078;11.876;2022-12-07T09:47:51;7.25;;;6.55;;
23588;SDS011;11972;48.078;11.876;2022-12-07T09:52:37;7.45;;;6.85;;
23588;SDS011;11972;48.078;11.876;2022-12-07T09:56:13;7.28;;;6.57;;
23588;SDS011;11972;48.078;11.876;2022-12-07T10:00:19;7.05;;;6.45;;
23588;SDS011;11972;48.078;11.876;2022-12-07T10:04:24;6.60;;;6.10;;
23588;SDS011;11972;48.078;11.876;2022-12-07T10:08:26;8.02;;;7.32;;
23588;SDS011;11972;48.078;11.876;2022-12-07T10:12:27;6.95;;;6.30;;
23588;SDS011;11972;48.078;11.876;2022-12-07T10:16:32;6.90;;;6.30;;
23588;SDS011;11972;48.078;11.876;2022-12-07T10:20:38;7.22;;;6.55;;
23588;SDS011;11972;48.078;11.876;2022-12-07T10:24:39;6.20;;;5.70;;
23588;SDS011;11972;48.078;11.876;2022-12-07T10:28:42;6.03;;;5.53;;
23588;SDS011;11972;48.078;11.876;2022-12-07T10:32:42;6.50;;;6.00;;
23588;SDS011;11972;48.078;11.876;2022-12-07T10:36:43;6.32;;;5.82;;
23588;SDS011;11972;48.078;11.876;2022-12-07T10:40:43;6.18;;;5.68;;
23588;SDS011;11972;48.078;11.876;2022-12-07T10:44:43;7.47;;;6.88;;
23588;SDS011;11972;48.078;11.876;2022-12-07T10:57:38;5.95;;;5.45;;
23588;SDS011;11972;48.078;11.876;2022-12-07T11:02:19;6.13;;;5.63;;
23588;SDS011;11972;48.078;11.876;2022-12-07T11:06:26;6.38;;;5.88;;
23588;SDS011;11972;48.078;11.876;2022-12-07T11:14:56;6.20;;;5.70;;
23588;SDS011;11972;48.078;11.876;2022-12-07T11:19:18;7.55;;;6.85;;
23588;SDS011;11972;48.078;11.876;2022-12-07T11:32:37;7.20;;;6.15;;
23588;SDS011;11972;48.078;11.876;2022-12-07T11:36:59;7.30;;;6.70;;
23588;SDS011;11972;48.078;11.876;2022-12-07T11:41:03;6.18;;;5.68;;
23588;SDS011;11972;48.078;11.876;2022-12-07T11:45:16;6.72;;;6.13;;
23588;SDS011;11972;48.078;11.876;2022-12-07T11:49:27;6.70;;;6.10;;
23588;SDS011;11972;48.078;11.876;2022-12-07T11:53:40;6.03;;;5.53;;
23588;SDS011;11972;48.078;11.876;2022-12-07T11:57:56;6.93;;;6.32;;
23588;SDS011;11972;48.078;11.876;2022-12-07T12:02:08;6.30;;;5.70;;
23588;SDS011;11972;48.078;11.876;2022-12-07T12:06:16;5.90;;;5.40;;
23588;SDS011;11972;48.078;11.876;2022-12-07T12:10:30;6.95;;;6.35;;
23588;SDS011;11972;48.078;11.876;2022-12-07T12:27:40;7.15;;;6.55;;
23588;SDS011;11972;48.078;11.876;2022-12-07T12:31:47;7.97;;;7.25;;
23588;SDS011;11972;48.078;11.876;2022-12-07T12:36:25;8.00;;;7.20;;
23588;SDS011;11972;48.078;11.876;2022-12-07T12:40:38;6.88;;;6.20;;
23588;SDS011;11972;48.078;11.876;2022-12-07T12:44:39;7.00;;;6.30;;
23588;SDS011;11972;48.078;11.876;2022-12-07T12:48:41;7.80;;;7.10;;
23588;SDS011;11972;48.078;11.876;2022-12-07T13:05:35;7.00;;;6.30;;
23588;SDS011;11972;48.078;11.876;2022-12-07T13:09:35;7.70;;;6.95;;
23588;SDS011;11972;48.078;11.876;2022-12-07T13:13:36;7.18;;;6.47;;
23588;SDS011;11972;48.078;11.876;2022-12-07T13:30:15;7.75;;;6.90;;
23588;SDS011;11972;48.078;11.876;2022-12-07T13:38:33;7.88;;;7.18;;
23588;SDS011;11972;48.078;11.876;2022-12-07T13:42:36;7.85;;;7.15;;
23588;SDS011;11972;48.078;11.876;2022-12-07T13:46:42;7.07;;;6.47;;
23588;SDS011;11972;48.078;11.876;2022-12-07T13:50:51;7.20;;;6.60;;
23588;SDS011;11972;48.078;11.876;2022-12-07T13:58:58;7.25;;;6.22;;
23588;SDS011;11972;48.078;11.876;2022-12-07T14:07:25;7.80;;;7.03;;
23588;SDS011;11972;48.078;11.876;2022-12-07T14:11:27;7.68;;;6.97;;
23588;SDS011;11972;48.078;11.876;2022-12-07T14:15:30;7.90;;;7.10;;
23588;SDS011;11972;48.078;11.876;2022-12-07T14:24:08;8.55;;;7.28;;
23588;SDS011;11972;48.078;11.876;2022-12-07T14:28:24;12.00;;;7.13;;
23588;SDS011;11972;48.078;11.876;2022-12-07T14:32:28;8.15;;;7.35;;
23588;SDS011;11972;48.078;11.876;2022-12-07T14:36:29;8.15;;;7.35;;
23588;SDS011;11972;48.078;11.876;2022-12-07T14:40:30;8.52;;;7.63;;
23588;SDS011;11972;48.078;11.876;2022-12-07T14:44:30;7.18;;;6.57;;
23588;SDS011;11972;48.078;11.876;2022-12-07T14:48:30;7.03;;;6.43;;
23588;SDS011;11972;48.078;11.876;2022-12-07T14:52:31;9.63;;;7.43;;
23588;SDS011;11972;48.078;11.876;2022-12-07T14:56:31;7.53;;;6.82;;
23588;SDS011;11972;48.078;11.876;2022-12-07T15:00:31;7.47;;;6.78;;
23588;SDS011;11972;48.078;11.876;2022-12-07T15:04:33;7.20;;;6.50;;
23588;SDS011;11972;48.078;11.876;2022-12-07T15:08:33;7.43;;;6.72;;
23588;SDS011;11972;48.078;11.876;2022-12-07T15:12:33;7.72;;;6.85;;
23588;SDS011;11972;48.078;11.876;2022-12-07T15:16:38;8.43;;;6.82;;
23588;SDS011;11972;48.078;11.876;2022-12-07T15:20:40;7.55;;;6.85;;
23588;SDS011;11972;48.078;11.876;2022-12-07T15:24:40;8.30;;;7.50;;
23588;SDS011;11972;48.078;11.876;2022-12-07T15:28:41;8.02;;;7.22;;
23588;SDS011;11972;48.078;11.876;2022-12-07T15:32:41;8.73;;;7.47;;
23588;SDS011;11972;48.078;11.876;2022-12-07T15:36:42;8.50;;;7.65;;
23588;SDS011;11972;48.078;11.876;2022-12-07T15:40:42;8.18;;;7.35;;
23588;SDS011;11972;48.078;11.876;2022-12-07T15:44:46;8.80;;;7.90;;
23588;SDS011;11972;48.078;11.876;2022-12-07T15:49:15;12.95;;;9.05;;
23588;SDS011;11972;48.078;11.876;2022-12-07T15:53:17;11.38;;;8.80;;
23588;SDS011;11972;48.078;11.876;2022-12-07T15:57:17;10.55;;;8.38;;
23588;SDS011;11972;48.078;11.876;2022-12-07T16:01:18;11.30;;;10.02;;
23588;SDS011;11972;48.078;11.876;2022-12-07T16:05:19;15.98;;;10.02;;
23588;SDS011;11972;48.078;11.876;2022-12-07T16:09:19;10.02;;;8.45;;
23588;SDS011;11972;48.078;11.876;2022-12-07T16:13:20;14.13;;;8.50;;
23588;SDS011;11972;48.078;11.876;2022-12-07T16:17:21;10.45;;;9.00;;
23588;SDS011;11972;48.078;11.876;2022-12-07T16:21:21;11.02;;;8.10;;
23588;SDS011;11972;48.078;11.876;2022-12-07T16:25:21;11.52;;;8.10;;
23588;SDS011;11972;48.078;11.876;2022-12-07T16:29:22;12.55;;;8.38;;
23588;SDS011;11972;48.078;11.876;2022-12-07T16:33:23;11.15;;;8.25;;
23588;SDS011;11972;48.078;11.876;2022-12-07T16:37:23;13.25;;;8.35;;
23588;SDS011;11972;48.078;11.876;2022-12-07T16:41:23;13.23;;;9.38;;
23588;SDS011;11972;48.078;11.876;2022-12-07T16:45:24;15.52;;;8.60;;
23588;SDS011;11972;48.078;11.876;2022-12-07T16:49:24;12.27;;;8.65;;
23588;SDS011;11972;48.078;11.876;2022-12-07T16:53:25;15.95;;;9.10;;
23588;SDS011;11972;48.078;11.876;2022-12-07T16:57:25;17.65;;;10.05;;
23588;SDS011;11972;48.078;11.876;2022-12-07T17:01:25;13.25;;;9.85;;
23588;SDS011;11972;48.078;11.876;2022-12-07T17:05:28;14.82;;;9.88;;
23588;SDS011;11972;48.078;11.876;2022-12-07T17:09:29;15.10;;;9.98;;
23588;SDS011;11972;48.078;11.876;2022-12-07T17:13:29;15.73;;;10.77;;
23588;SDS011;11972;48.078;11.876;2022-12-07T17:17:52;21.08;;;11.70;;
23588;SDS011;11972;48.078;11.876;2022-12-07T17:21:54;21.00;;;12.82;;
23588;SDS011;11972;48.078;11.876;2022-12-07T17:25:55;21.77;;;12.77;;
23588;SDS011;11972;48.078;11.876;2022-12-07T17:29:55;15.95;;;10.55;;
23588;SDS011;11972;48.078;11.876;2022-12-07T17:33:55;14.73;;;9.77;;
23588;SDS011;11972;48.078;11.876;2022-12-07T17:37:55;18.48;;;12.20;;
23588;SDS011;11972;48.078;11.876;2022-12-07T17:41:56;17.75;;;11.85;;
23588;SDS011;11972;48.078;11.876;2022-12-07T17:50:15;17.73;;;11.75;;
23588;SDS011;11972;48.078;11.876;2022-12-07T17:54:16;33.80;;;20.33;;
23588;SDS011;11972;48.078;11.876;2022-12-07T17:58:17;43.67;;;25.15;;
23588;SDS011;11972;48.078;11.876;2022-12-07T18:02:18;45.38;;;27.52;;
23588;SDS011;11972;48.078;11.876;2022-12-07T18:06:18;50.17;;;30.50;;
23588;SDS011;11972;48.078;11.876;2022-12-07T18:10:18;49.72;;;30.95;;
23588;SDS011;11972;48.078;11.876;2022-12-07T18:14:19;46.05;;;29.92;;
23588;SDS011;11972;48.078;11.876;2022-12-07T18:18:19;49.97;;;30.90;;
23588;SDS011;11972;48.078;11.876;2022-12-07T18:22:19;39.10;;;26.92;;
23588;SDS011;11972;48.078;11.876;2022-12-07T18:26:20;37.85;;;24.92;;
23588;SDS011;11972;48.078;11.876;2022-12-07T18:30:22;39.25;;;25.73;;
23588;SDS011;11972;48.078;11.876;2022-12-07T18:34:23;33.95;;;24.95;;
23588;SDS011;11972;48.078;11.876;2022-12-07T18:38:23;32.72;;;23.15;;
23588;SDS011;11972;48.078;11.876;2022-12-07T18:42:23;32.95;;;21.63;;
23588;SDS011;11972;48.078;11.876;2022-12-07T18:46:24;28.33;;;21.88;;
23588;SDS011;11972;48.078;11.876;2022-12-07T18:50:25;35.67;;;23.92;;
23588;SDS011;11972;48.078;11.876;2022-12-07T18:54:25;39.90;;;25.63;;
23588;SDS011;11972;48.078;11.876;2022-12-07T18:58:25;30.58;;;21.70;;
23588;SDS011;11972;48.078;11.876;2022-12-07T19:02:26;25.70;;;19.77;;
23588;SDS011;11972;48.078;11.876;2022-12-07T19:06:26;29.55;;;20.50;;
23588;SDS011;11972;48.078;11.876;2022-12-07T19:10:27;23.30;;;17.40;;
23588;SDS011;11972;48.078;11.876;2022-12-07T19:14:28;25.50;;;17.55;;
23588;SDS011;11972;48.078;11.876;2022-12-07T19:18:31;23.25;;;16.52;;
23588;SDS011;11972;48.078;11.876;2022-12-07T19:22:32;19.45;;;14.48;;
23588;SDS011;11972;48.078;11.876;2022-12-07T19:26:33;24.58;;;17.75;;
23588;SDS011;11972;48.078;11.876;2022-12-07T19:30:34;18.42;;;14.10;;
23588;SDS011;11972;48.078;11.876;2022-12-07T19:34:38;18.90;;;13.80;;
23588;SDS011;11972;48.078;11.876;2022-12-07T19:38:40;18.88;;;14.38;;
23588;SDS011;11972;48.078;11.876;2022-12-07T19:42:40;17.20;;;13.70;;
23588;SDS011;11972;48.078;11.876;2022-12-07T19:46:41;16.35;;;13.48;;
23588;SDS011;11972;48.078;11.876;2022-12-07T19:50:45;14.23;;;11.73;;
23588;SDS011;11972;48.078;11.876;2022-12-07T19:54:46;12.95;;;10.57;;
23588;SDS011;11972;48.078;11.876;2022-12-07T19:58:46;11.60;;;9.63;;
23588;SDS011;11972;48.078;11.876;2022-12-07T20:02:50;17.75;;;13.18;;
23588;SDS011;11972;48.078;11.876;2022-12-07T20:06:51;13.77;;;11.10;;
23588;SDS011;11972;48.078;11.876;2022-12-07T20:10:57;15.25;;;10.93;;
23588;SDS011;11972;48.078;11.876;2022-12-07T20:14:57;12.73;;;9.95;;
23588;SDS011;11972;48.078;11.876;2022-12-07T20:18:58;15.68;;;12.00;;
23588;SDS011;11972;48.078;11.876;2022-12-07T20:22:58;13.88;;;11.10;;
23588;SDS011;11972;48.078;11.876;2022-12-07T20:26:59;12.95;;;10.15;;
23588;SDS011;11972;48.078;11.876;2022-12-07T20:30:59;12.27;;;9.52;;
23588;SDS011;11972;48.078;11.876;2022-12-07T20:35:00;12.45;;;9.27;;
23588;SDS011;11972;48.078;11.876;2022-12-07T20:39:01;11.73;;;9.40;;
23588;SDS011;11972;48.078;11.876;2022-12-07T20:43:02;11.57;;;9.43;;
23588;SDS011;11972;48.078;11.876;2022-12-07T20:47:03;10.85;;;8.70;;
23588;SDS011;11972;48.078;11.876;2022-12-07T20:51:05;10.63;;;8.27;;
23588;SDS011;11972;48.078;11.876;2022-12-07T20:55:06;13.45;;;10.45;;
23588;SDS011;11972;48.078;11.876;2022-12-07T20:59:07;11.20;;;9.15;;
23588;SDS011;11972;48.078;11.876;2022-12-07T21:03:10;15.25;;;11.45;;
23588;SDS011;11972;48.078;11.876;2022-12-07T21:07:10;15.63;;;11.65;;
23588;SDS011;11972;48.078;11.876;2022-12-07T21:11:10;49.58;;;26.63;;
23588;SDS011;11972;48.078;11.876;2022-12-07T21:15:11;17.30;;;13.05;;
23588;SDS011;11972;48.078;11.876;2022-12-07T21:19:11;20.23;;;14.70;;
23588;SDS011;11972;48.078;11.876;2022-12-07T21:23:12;26.35;;;19.27;;
23588;SDS011;11972;48.078;11.876;2022-12-07T21:27:12;22.25;;;16.38;;
23588;SDS011;11972;48.078;11.876;2022-12-07T21:31:13;23.38;;;16.02;;
23588;SDS011;11972;48.078;11.876;2022-12-07T21:35:13;19.17;;;13.88;;
23588;SDS011;11972;48.078;11.876;2022-12-07T21:39:13;18.95;;;13.68;;
23588;SDS011;11972;48.078;11.876;2022-12-07T21:43:14;19.10;;;13.52;;
23588;SDS011;11972;48.078;11.876;2022-12-07T21:47:14;15.00;;;11.65;;
23588;SDS011;11972;48.078;11.876;2022-12-07T21:51:14;17.27;;;11.90;;
23588;SDS011;11972;48.078;11.876;2022-12-07T21:55:15;13.82;;;10.68;;
23588;SDS011;11972;48.078;11.876;2022-12-07T21:59:16;15.50;;;11.25;;
23588;SDS011;11972;48.078;11.876;2022-12-07T22:03:20;13.27;;;10.15;;
23588;SDS011;11972;48.078;11.876;2022-12-07T22:07:20;14.30;;;9.35;;
23588;SDS011;11972;48.078;11.876;2022-12-07T22:11:21;13.65;;;9.32;;
23588;SDS011;11972;48.078;11.876;2022-12-07T22:15:21;13.63;;;9.73;;
23588;SDS011;11972;48.078;11.876;2022-12-07T22:19:22;13.18;;;10.20;;
23588;SDS011;11972;48.078;11.876;2022-12-07T22:23:22;11.25;;;8.95;;
23588;SDS011;11972;48.078;11.876;2022-12-07T22:27:23;12.23;;;9.23;;
23588;SDS011;11972;48.078;11.876;2022-12-07T22:31:23;11.35;;;8.73;;
23588;SDS011;11972;48.078;11.876;2022-12-07T22:35:24;12.13;;;8.65;;
23588;SDS011;11972;48.078;11.876;2022-12-07T22:39:24;10.90;;;8.70;;
23588;SDS011;11972;48.078;11.876;2022-12-07T22:43:24;11.45;;;9.18;;
23588;SDS011;11972;48.078;11.876;2022-12-07T22:47:25;13.60;;;10.07;;
23588;SDS011;11972;48.078;11.876;2022-12-07T22:51:29;13.38;;;10.07;;
23588;SDS011;11972;48.078;11.876;2022-12-07T22:55:31;12.15;;;9.68;;
23588;SDS011;11972;48.078;11.876;2022-12-07T22:59:32;12.82;;;9.85;;
23588;SDS011;11972;48.078;11.876;2022-12-07T23:03:32;12.15;;;9.98;;
23588;SDS011;11972;48.078;11.876;2022-12-07T23:07:33;13.68;;;10.20;;
23588;SDS011;11972;48.078;11.876;2022-12-07T23:11:34;12.77;;;10.20;;
23588;SDS011;11972;48.078;11.876;2022-12-07T23:15:56;12.75;;;9.23;;
23588;SDS011;11972;48.078;11.876;2022-12-07T23:19:57;11.95;;;9.20;;
23588;SDS011;11972;48.078;11.876;2022-12-07T23:23:58;12.55;;;9.27;;
23588;SDS011;11972;48.078;11.876;2022-12-07T23:27:58;13.45;;;10.05;;
23588;SDS011;11972;48.078;11.876;2022-12-07T23:31:59;12.13;;;9.52;;
23588;SDS011;11972;48.078;11.876;2022-12-07T23:40:29;11.45;;;8.93;;
23588;SDS011;11972;48.078;11.876;2022-12-07T23:44:29;12.77;;;9.32;;
23588;SDS011;11972;48.078;11.876;2022-12-07T23:48:30;14.48;;;10.02;;
23588;SDS011;11972;48.078;11.876;2022-12-07T23:52:30;11.82;;;8.60;;
23588;SDS011;11972;48.078;11.876;2022-12-07T23:56:31;12.15;;;9.13;;
